sensor_id;sensor_type;location;lat;lon;timestamp;P1;durP1;ratioP1;P2;durP2;ratioP2
52898;SDS011;38763;53.096;6.062;2024-03-23T00:53:47;38.20;;;6.90;;
52898;SDS011;38763;53.096;6.062;2024-03-23T00:56:13;27.05;;;5.95;;
52898;SDS011;38763;53.096;6.062;2024-03-23T00:58:38;33.17;;;6.00;;
52898;SDS011;38763;53.096;6.062;2024-03-23T01:01:04;31.20;;;6.85;;
52898;SDS011;38763;53.096;6.062;2024-03-23T01:03:30;25.23;;;5.88;;
52898;SDS011;38763;53.096;6.062;2024-03-23T01:05:59;34.65;;;6.55;;
52898;SDS011;38763;53.096;6.062;2024-03-23T01:08:25;33.67;;;6.22;;
52898;SDS011;38763;53.096;6.062;2024-03-23T01:10:55;38.25;;;6.88;;
52898;SDS011;38763;53.096;6.062;2024-03-23T01:13:21;31.52;;;5.97;;
52898;SDS011;38763;53.096;6.062;2024-03-23T01:15:54;29.23;;;6.18;;
52898;SDS011;38763;53.096;6.062;2024-03-23T01:18:21;30.95;;;5.75;;
52898;SDS011;38763;53.096;6.062;2024-03-23T01:20:47;26.30;;;6.00;;
52898;SDS011;38763;53.096;6.062;2024-03-23T01:23:13;28.38;;;6.10;;
52898;SDS011;38763;53.096;6.062;2024-03-23T01:25:39;29.92;;;6.30;;
52898;SDS011;38763;53.096;6.062;2024-03-23T01:28:05;28.98;;;5.97;;
52898;SDS011;38763;53.096;6.062;2024-03-23T01:30:34;28.58;;;6.55;;
52898;SDS011;38763;53.096;6.062;2024-03-23T01:33:00;29.40;;;5.85;;
52898;SDS011;38763;53.096;6.062;2024-03-23T01:35:26;30.70;;;5.78;;
52898;SDS011;38763;53.096;6.062;2024-03-23T01:37:52;25.23;;;5.88;;
52898;SDS011;38763;53.096;6.062;2024-03-23T01:40:17;34.95;;;6.07;;
52898;SDS011;38763;53.096;6.062;2024-03-23T01:43:05;20.75;;;5.70;;
52898;SDS011;38763;53.096;6.062;2024-03-23T01:45:31;28.98;;;5.40;;
52898;SDS011;38763;53.096;6.062;2024-03-23T01:47:57;27.90;;;6.22;;
52898;SDS011;38763;53.096;6.062;2024-03-23T01:50:23;24.95;;;5.55;;
52898;SDS011;38763;53.096;6.062;2024-03-23T01:52:50;29.20;;;5.70;;
52898;SDS011;38763;53.096;6.062;2024-03-23T01:55:16;31.13;;;5.57;;
52898;SDS011;38763;53.096;6.062;2024-03-23T01:57:42;27.63;;;5.57;;
52898;SDS011;38763;53.096;6.062;2024-03-23T02:00:08;23.40;;;5.25;;
52898;SDS011;38763;53.096;6.062;2024-03-23T02:02:40;27.98;;;5.35;;
52898;SDS011;38763;53.096;6.062;2024-03-23T02:05:09;26.17;;;5.60;;
52898;SDS011;38763;53.096;6.062;2024-03-23T02:07:36;31.50;;;6.18;;
52898;SDS011;38763;53.096;6.062;2024-03-23T02:10:06;26.17;;;5.82;;
52898;SDS011;38763;53.096;6.062;2024-03-23T02:12:32;22.67;;;6.05;;
52898;SDS011;38763;53.096;6.062;2024-03-23T02:14:58;28.05;;;5.97;;
52898;SDS011;38763;53.096;6.062;2024-03-23T02:17:24;22.98;;;5.05;;
52898;SDS011;38763;53.096;6.062;2024-03-23T02:19:50;24.30;;;5.45;;
52898;SDS011;38763;53.096;6.062;2024-03-23T02:22:16;29.58;;;6.55;;
52898;SDS011;38763;53.096;6.062;2024-03-23T02:24:41;30.88;;;5.50;;
52898;SDS011;38763;53.096;6.062;2024-03-23T02:27:07;21.20;;;4.97;;
52898;SDS011;38763;53.096;6.062;2024-03-23T02:29:33;21.83;;;4.75;;
52898;SDS011;38763;53.096;6.062;2024-03-23T02:31:59;28.50;;;5.43;;
52898;SDS011;38763;53.096;6.062;2024-03-23T02:34:24;25.85;;;5.32;;
52898;SDS011;38763;53.096;6.062;2024-03-23T02:36:50;25.92;;;5.20;;
52898;SDS011;38763;53.096;6.062;2024-03-23T02:39:16;21.60;;;4.63;;
52898;SDS011;38763;53.096;6.062;2024-03-23T02:41:41;24.50;;;4.57;;
52898;SDS011;38763;53.096;6.062;2024-03-23T02:44:07;20.02;;;4.90;;
52898;SDS011;38763;53.096;6.062;2024-03-23T02:46:33;21.88;;;4.57;;
52898;SDS011;38763;53.096;6.062;2024-03-23T02:48:58;21.67;;;4.72;;
52898;SDS011;38763;53.096;6.062;2024-03-23T02:51:24;24.10;;;4.65;;
52898;SDS011;38763;53.096;6.062;2024-03-23T02:53:51;17.75;;;4.55;;
52898;SDS011;38763;53.096;6.062;2024-03-23T02:56:16;18.60;;;4.13;;
52898;SDS011;38763;53.096;6.062;2024-03-23T02:58:42;24.65;;;4.57;;
52898;SDS011;38763;53.096;6.062;2024-03-23T03:01:08;26.27;;;4.32;;
52898;SDS011;38763;53.096;6.062;2024-03-23T03:03:34;18.38;;;3.97;;
52898;SDS011;38763;53.096;6.062;2024-03-23T03:05:59;19.42;;;4.35;;
52898;SDS011;38763;53.096;6.062;2024-03-23T03:08:25;26.85;;;3.90;;
52898;SDS011;38763;53.096;6.062;2024-03-23T03:10:50;22.70;;;3.78;;
52898;SDS011;38763;53.096;6.062;2024-03-23T03:13:16;16.98;;;3.88;;
52898;SDS011;38763;53.096;6.062;2024-03-23T03:15:45;24.45;;;4.18;;
52898;SDS011;38763;53.096;6.062;2024-03-23T03:18:11;19.77;;;4.00;;
52898;SDS011;38763;53.096;6.062;2024-03-23T03:20:40;21.83;;;4.28;;
52898;SDS011;38763;53.096;6.062;2024-03-23T03:23:06;22.13;;;4.00;;
52898;SDS011;38763;53.096;6.062;2024-03-23T03:25:32;24.77;;;4.32;;
52898;SDS011;38763;53.096;6.062;2024-03-23T03:27:58;17.92;;;3.38;;
52898;SDS011;38763;53.096;6.062;2024-03-23T03:30:24;18.90;;;4.25;;
52898;SDS011;38763;53.096;6.062;2024-03-23T03:32:51;26.42;;;4.28;;
52898;SDS011;38763;53.096;6.062;2024-03-23T03:35:18;21.75;;;3.70;;
52898;SDS011;38763;53.096;6.062;2024-03-23T03:37:43;20.85;;;3.88;;
52898;SDS011;38763;53.096;6.062;2024-03-23T03:40:09;22.17;;;4.03;;
52898;SDS011;38763;53.096;6.062;2024-03-23T03:42:36;20.85;;;3.78;;
52898;SDS011;38763;53.096;6.062;2024-03-23T03:45:01;16.55;;;3.28;;
52898;SDS011;38763;53.096;6.062;2024-03-23T03:47:29;21.27;;;3.72;;
52898;SDS011;38763;53.096;6.062;2024-03-23T03:49:55;19.27;;;4.20;;
52898;SDS011;38763;53.096;6.062;2024-03-23T03:52:20;20.15;;;3.58;;
52898;SDS011;38763;53.096;6.062;2024-03-23T03:54:46;18.77;;;3.40;;
52898;SDS011;38763;53.096;6.062;2024-03-23T03:57:12;20.77;;;3.95;;
52898;SDS011;38763;53.096;6.062;2024-03-23T03:59:37;17.00;;;3.90;;
52898;SDS011;38763;53.096;6.062;2024-03-23T04:02:03;17.85;;;3.92;;
52898;SDS011;38763;53.096;6.062;2024-03-23T04:04:28;19.08;;;3.92;;
52898;SDS011;38763;53.096;6.062;2024-03-23T04:07:01;23.65;;;4.43;;
52898;SDS011;38763;53.096;6.062;2024-03-23T04:09:27;27.08;;;3.80;;
52898;SDS011;38763;53.096;6.062;2024-03-23T04:11:53;34.38;;;4.30;;
52898;SDS011;38763;53.096;6.062;2024-03-23T04:14:18;19.40;;;3.78;;
52898;SDS011;38763;53.096;6.062;2024-03-23T04:16:44;24.98;;;3.95;;
52898;SDS011;38763;53.096;6.062;2024-03-23T04:19:10;19.80;;;3.70;;
52898;SDS011;38763;53.096;6.062;2024-03-23T04:21:36;22.75;;;3.97;;
52898;SDS011;38763;53.096;6.062;2024-03-23T04:24:03;17.38;;;3.60;;
52898;SDS011;38763;53.096;6.062;2024-03-23T04:26:29;20.45;;;3.60;;
52898;SDS011;38763;53.096;6.062;2024-03-23T04:28:54;23.15;;;3.88;;
52898;SDS011;38763;53.096;6.062;2024-03-23T04:31:21;24.05;;;4.60;;
52898;SDS011;38763;53.096;6.062;2024-03-23T04:33:47;26.20;;;3.80;;
52898;SDS011;38763;53.096;6.062;2024-03-23T04:36:13;18.02;;;3.50;;
52898;SDS011;38763;53.096;6.062;2024-03-23T04:38:38;21.95;;;3.80;;
52898;SDS011;38763;53.096;6.062;2024-03-23T04:41:04;25.25;;;3.95;;
52898;SDS011;38763;53.096;6.062;2024-03-23T04:43:30;21.20;;;3.63;;
52898;SDS011;38763;53.096;6.062;2024-03-23T04:45:55;22.98;;;4.32;;
52898;SDS011;38763;53.096;6.062;2024-03-23T04:48:21;16.58;;;4.32;;
52898;SDS011;38763;53.096;6.062;2024-03-23T04:50:54;18.50;;;3.60;;
52898;SDS011;38763;53.096;6.062;2024-03-23T04:53:22;17.60;;;3.63;;
52898;SDS011;38763;53.096;6.062;2024-03-23T04:55:53;23.05;;;4.18;;
52898;SDS011;38763;53.096;6.062;2024-03-23T04:58:19;16.35;;;3.83;;
52898;SDS011;38763;53.096;6.062;2024-03-23T05:00:44;19.58;;;4.00;;
52898;SDS011;38763;53.096;6.062;2024-03-23T05:03:10;19.63;;;3.25;;
52898;SDS011;38763;53.096;6.062;2024-03-23T05:05:36;21.30;;;3.67;;
52898;SDS011;38763;53.096;6.062;2024-03-23T05:08:01;20.00;;;3.40;;
52898;SDS011;38763;53.096;6.062;2024-03-23T05:10:27;18.20;;;3.20;;
52898;SDS011;38763;53.096;6.062;2024-03-23T05:12:52;23.00;;;3.42;;
52898;SDS011;38763;53.096;6.062;2024-03-23T05:15:18;26.13;;;3.60;;
52898;SDS011;38763;53.096;6.062;2024-03-23T05:17:44;19.83;;;3.08;;
52898;SDS011;38763;53.096;6.062;2024-03-23T05:20:09;20.48;;;3.70;;
52898;SDS011;38763;53.096;6.062;2024-03-23T05:22:37;18.60;;;3.33;;
52898;SDS011;38763;53.096;6.062;2024-03-23T05:25:03;13.63;;;3.17;;
52898;SDS011;38763;53.096;6.062;2024-03-23T05:27:31;15.73;;;3.53;;
52898;SDS011;38763;53.096;6.062;2024-03-23T05:29:58;14.05;;;3.30;;
52898;SDS011;38763;53.096;6.062;2024-03-23T05:32:23;22.58;;;3.78;;
52898;SDS011;38763;53.096;6.062;2024-03-23T05:34:49;25.83;;;3.17;;
52898;SDS011;38763;53.096;6.062;2024-03-23T05:37:20;15.27;;;3.10;;
52898;SDS011;38763;53.096;6.062;2024-03-23T05:39:46;19.08;;;3.17;;
52898;SDS011;38763;53.096;6.062;2024-03-23T05:42:14;14.95;;;2.92;;
52898;SDS011;38763;53.096;6.062;2024-03-23T05:44:42;15.00;;;3.08;;
52898;SDS011;38763;53.096;6.062;2024-03-23T05:47:11;20.73;;;3.28;;
52898;SDS011;38763;53.096;6.062;2024-03-23T05:49:41;21.05;;;3.58;;
52898;SDS011;38763;53.096;6.062;2024-03-23T05:52:08;14.85;;;2.70;;
52898;SDS011;38763;53.096;6.062;2024-03-23T05:54:34;13.85;;;2.78;;
52898;SDS011;38763;53.096;6.062;2024-03-23T05:57:00;22.02;;;3.40;;
52898;SDS011;38763;53.096;6.062;2024-03-23T05:59:26;19.40;;;3.22;;
52898;SDS011;38763;53.096;6.062;2024-03-23T06:01:52;20.13;;;4.07;;
52898;SDS011;38763;53.096;6.062;2024-03-23T06:04:18;16.30;;;3.03;;
52898;SDS011;38763;53.096;6.062;2024-03-23T06:06:44;19.63;;;3.25;;
52898;SDS011;38763;53.096;6.062;2024-03-23T06:09:10;18.75;;;3.60;;
52898;SDS011;38763;53.096;6.062;2024-03-23T06:11:36;12.85;;;3.05;;
52898;SDS011;38763;53.096;6.062;2024-03-23T06:14:01;14.07;;;2.97;;
52898;SDS011;38763;53.096;6.062;2024-03-23T06:16:27;18.48;;;3.15;;
52898;SDS011;38763;53.096;6.062;2024-03-23T06:18:53;15.52;;;3.38;;
52898;SDS011;38763;53.096;6.062;2024-03-23T06:21:19;15.23;;;3.65;;
52898;SDS011;38763;53.096;6.062;2024-03-23T06:23:45;17.63;;;4.35;;
52898;SDS011;38763;53.096;6.062;2024-03-23T06:26:16;19.48;;;3.53;;
52898;SDS011;38763;53.096;6.062;2024-03-23T06:28:43;17.60;;;3.72;;
52898;SDS011;38763;53.096;6.062;2024-03-23T06:31:09;11.10;;;2.53;;
52898;SDS011;38763;53.096;6.062;2024-03-23T06:33:35;17.65;;;2.65;;
52898;SDS011;38763;53.096;6.062;2024-03-23T06:36:00;9.95;;;2.17;;
52898;SDS011;38763;53.096;6.062;2024-03-23T06:38:28;10.07;;;1.88;;
52898;SDS011;38763;53.096;6.062;2024-03-23T06:40:53;11.52;;;1.95;;
52898;SDS011;38763;53.096;6.062;2024-03-23T06:43:19;10.15;;;1.90;;
52898;SDS011;38763;53.096;6.062;2024-03-23T06:45:51;8.80;;;1.88;;
52898;SDS011;38763;53.096;6.062;2024-03-23T06:50:44;11.77;;;1.90;;
52898;SDS011;38763;53.096;6.062;2024-03-23T06:53:11;14.27;;;2.00;;
52898;SDS011;38763;53.096;6.062;2024-03-23T06:55:37;13.02;;;2.22;;
52898;SDS011;38763;53.096;6.062;2024-03-23T06:58:03;10.48;;;2.63;;
52898;SDS011;38763;53.096;6.062;2024-03-23T07:00:29;9.27;;;2.30;;
52898;SDS011;38763;53.096;6.062;2024-03-23T07:02:55;8.45;;;2.03;;
52898;SDS011;38763;53.096;6.062;2024-03-23T07:05:21;9.90;;;2.08;;
52898;SDS011;38763;53.096;6.062;2024-03-23T07:07:46;10.32;;;2.15;;
52898;SDS011;38763;53.096;6.062;2024-03-23T07:10:12;7.80;;;1.98;;
52898;SDS011;38763;53.096;6.062;2024-03-23T07:12:37;9.80;;;1.77;;
52898;SDS011;38763;53.096;6.062;2024-03-23T07:15:03;8.90;;;2.03;;
52898;SDS011;38763;53.096;6.062;2024-03-23T07:17:29;14.20;;;2.40;;
52898;SDS011;38763;53.096;6.062;2024-03-23T07:19:55;8.32;;;2.25;;
52898;SDS011;38763;53.096;6.062;2024-03-23T07:22:21;9.57;;;2.40;;
52898;SDS011;38763;53.096;6.062;2024-03-23T07:24:46;13.75;;;2.63;;
52898;SDS011;38763;53.096;6.062;2024-03-23T07:27:12;13.40;;;2.40;;
52898;SDS011;38763;53.096;6.062;2024-03-23T07:29:38;8.77;;;2.35;;
52898;SDS011;38763;53.096;6.062;2024-03-23T07:32:03;10.90;;;2.63;;
52898;SDS011;38763;53.096;6.062;2024-03-23T07:34:29;12.85;;;3.03;;
52898;SDS011;38763;53.096;6.062;2024-03-23T07:36:55;14.70;;;2.90;;
52898;SDS011;38763;53.096;6.062;2024-03-23T07:39:20;14.68;;;3.00;;
52898;SDS011;38763;53.096;6.062;2024-03-23T07:41:46;15.80;;;3.45;;
52898;SDS011;38763;53.096;6.062;2024-03-23T07:44:12;13.90;;;3.58;;
52898;SDS011;38763;53.096;6.062;2024-03-23T07:46:37;14.85;;;3.35;;
52898;SDS011;38763;53.096;6.062;2024-03-23T07:49:06;15.18;;;3.55;;
52898;SDS011;38763;53.096;6.062;2024-03-23T07:51:32;11.48;;;3.15;;
52898;SDS011;38763;53.096;6.062;2024-03-23T07:53:58;13.48;;;3.00;;
52898;SDS011;38763;53.096;6.062;2024-03-23T07:56:24;17.52;;;3.30;;
52898;SDS011;38763;53.096;6.062;2024-03-23T07:58:50;13.65;;;3.17;;
52898;SDS011;38763;53.096;6.062;2024-03-23T08:01:16;14.32;;;3.35;;
52898;SDS011;38763;53.096;6.062;2024-03-23T08:03:43;16.27;;;3.40;;
52898;SDS011;38763;53.096;6.062;2024-03-23T08:06:13;14.02;;;3.38;;
52898;SDS011;38763;53.096;6.062;2024-03-23T08:08:45;16.85;;;3.20;;
52898;SDS011;38763;53.096;6.062;2024-03-23T08:11:11;12.23;;;3.25;;
52898;SDS011;38763;53.096;6.062;2024-03-23T08:13:38;19.17;;;3.35;;
52898;SDS011;38763;53.096;6.062;2024-03-23T08:16:05;12.82;;;2.97;;
52898;SDS011;38763;53.096;6.062;2024-03-23T08:18:31;18.17;;;3.05;;
52898;SDS011;38763;53.096;6.062;2024-03-23T08:23:27;18.55;;;3.50;;
52898;SDS011;38763;53.096;6.062;2024-03-23T08:25:59;15.38;;;3.08;;
52898;SDS011;38763;53.096;6.062;2024-03-23T08:28:25;14.95;;;3.10;;
52898;SDS011;38763;53.096;6.062;2024-03-23T08:30:52;16.15;;;3.60;;
52898;SDS011;38763;53.096;6.062;2024-03-23T08:33:18;14.65;;;3.15;;
52898;SDS011;38763;53.096;6.062;2024-03-23T08:36:00;11.30;;;2.95;;
52898;SDS011;38763;53.096;6.062;2024-03-23T08:38:27;12.35;;;2.78;;
52898;SDS011;38763;53.096;6.062;2024-03-23T08:41:03;14.10;;;2.70;;
52898;SDS011;38763;53.096;6.062;2024-03-23T08:43:29;13.75;;;2.67;;
52898;SDS011;38763;53.096;6.062;2024-03-23T08:46:14;13.38;;;2.70;;
52898;SDS011;38763;53.096;6.062;2024-03-23T08:48:45;13.43;;;2.50;;
52898;SDS011;38763;53.096;6.062;2024-03-23T08:51:14;11.73;;;2.40;;
52898;SDS011;38763;53.096;6.062;2024-03-23T08:53:40;13.50;;;3.17;;
52898;SDS011;38763;53.096;6.062;2024-03-23T08:56:07;12.52;;;2.22;;
52898;SDS011;38763;53.096;6.062;2024-03-23T08:58:37;9.30;;;2.70;;
52898;SDS011;38763;53.096;6.062;2024-03-23T09:01:07;9.43;;;2.40;;
52898;SDS011;38763;53.096;6.062;2024-03-23T09:03:32;10.65;;;2.65;;
52898;SDS011;38763;53.096;6.062;2024-03-23T09:05:59;12.30;;;2.50;;
52898;SDS011;38763;53.096;6.062;2024-03-23T09:08:25;12.48;;;2.30;;
52898;SDS011;38763;53.096;6.062;2024-03-23T09:10:51;9.90;;;2.08;;
52898;SDS011;38763;53.096;6.062;2024-03-23T09:13:17;9.70;;;2.25;;
52898;SDS011;38763;53.096;6.062;2024-03-23T09:15:46;10.95;;;2.30;;
52898;SDS011;38763;53.096;6.062;2024-03-23T09:18:13;7.18;;;2.03;;
52898;SDS011;38763;53.096;6.062;2024-03-23T09:20:39;6.53;;;2.05;;
52898;SDS011;38763;53.096;6.062;2024-03-23T09:23:05;10.48;;;2.25;;
52898;SDS011;38763;53.096;6.062;2024-03-23T09:25:36;12.50;;;2.55;;
52898;SDS011;38763;53.096;6.062;2024-03-23T09:28:03;9.85;;;2.60;;
52898;SDS011;38763;53.096;6.062;2024-03-23T09:30:29;12.70;;;2.42;;
52898;SDS011;38763;53.096;6.062;2024-03-23T09:32:54;9.20;;;2.10;;
52898;SDS011;38763;53.096;6.062;2024-03-23T09:35:20;9.77;;;2.40;;
52898;SDS011;38763;53.096;6.062;2024-03-23T09:37:45;12.00;;;1.90;;
52898;SDS011;38763;53.096;6.062;2024-03-23T09:40:11;7.90;;;1.90;;
52898;SDS011;38763;53.096;6.062;2024-03-23T09:42:37;7.95;;;1.90;;
52898;SDS011;38763;53.096;6.062;2024-03-23T09:45:05;9.02;;;2.30;;
52898;SDS011;38763;53.096;6.062;2024-03-23T09:47:34;13.45;;;2.30;;
52898;SDS011;38763;53.096;6.062;2024-03-23T09:50:00;13.13;;;2.17;;
52898;SDS011;38763;53.096;6.062;2024-03-23T09:52:26;10.02;;;1.75;;
52898;SDS011;38763;53.096;6.062;2024-03-23T09:54:51;11.10;;;2.22;;
52898;SDS011;38763;53.096;6.062;2024-03-23T09:57:17;10.00;;;2.10;;
52898;SDS011;38763;53.096;6.062;2024-03-23T09:59:43;14.80;;;2.67;;
52898;SDS011;38763;53.096;6.062;2024-03-23T10:02:08;11.20;;;2.70;;
52898;SDS011;38763;53.096;6.062;2024-03-23T10:04:39;13.32;;;2.47;;
52898;SDS011;38763;53.096;6.062;2024-03-23T10:07:12;13.02;;;2.42;;
52898;SDS011;38763;53.096;6.062;2024-03-23T10:09:38;18.33;;;3.35;;
52898;SDS011;38763;53.096;6.062;2024-03-23T10:12:08;12.88;;;2.47;;
52898;SDS011;38763;53.096;6.062;2024-03-23T10:14:35;17.80;;;3.05;;
52898;SDS011;38763;53.096;6.062;2024-03-23T10:17:15;15.07;;;2.90;;
52898;SDS011;38763;53.096;6.062;2024-03-23T10:22:13;13.40;;;2.53;;
52898;SDS011;38763;53.096;6.062;2024-03-23T10:24:39;13.60;;;2.53;;
52898;SDS011;38763;53.096;6.062;2024-03-23T10:27:06;9.88;;;1.85;;
52898;SDS011;38763;53.096;6.062;2024-03-23T10:29:31;7.07;;;1.52;;
52898;SDS011;38763;53.096;6.062;2024-03-23T10:32:10;6.15;;;1.48;;
52898;SDS011;38763;53.096;6.062;2024-03-23T10:34:37;9.82;;;2.10;;
52898;SDS011;38763;53.096;6.062;2024-03-23T10:37:03;8.85;;;1.98;;
52898;SDS011;38763;53.096;6.062;2024-03-23T10:39:47;9.00;;;1.77;;
52898;SDS011;38763;53.096;6.062;2024-03-23T10:42:13;9.48;;;2.05;;
52898;SDS011;38763;53.096;6.062;2024-03-23T10:44:40;10.40;;;2.42;;
52898;SDS011;38763;53.096;6.062;2024-03-23T10:47:06;12.73;;;2.22;;
52898;SDS011;38763;53.096;6.062;2024-03-23T10:49:32;11.68;;;2.35;;
52898;SDS011;38763;53.096;6.062;2024-03-23T10:52:02;9.15;;;2.08;;
52898;SDS011;38763;53.096;6.062;2024-03-23T10:54:32;10.35;;;2.47;;
52898;SDS011;38763;53.096;6.062;2024-03-23T10:57:03;10.65;;;2.10;;
52898;SDS011;38763;53.096;6.062;2024-03-23T10:59:39;9.55;;;1.80;;
52898;SDS011;38763;53.096;6.062;2024-03-23T11:02:05;6.32;;;1.70;;
52898;SDS011;38763;53.096;6.062;2024-03-23T11:04:34;6.10;;;1.60;;
52898;SDS011;38763;53.096;6.062;2024-03-23T11:07:01;11.50;;;2.42;;
52898;SDS011;38763;53.096;6.062;2024-03-23T11:09:39;8.82;;;2.30;;
52898;SDS011;38763;53.096;6.062;2024-03-23T11:15:05;13.02;;;2.30;;
52898;SDS011;38763;53.096;6.062;2024-03-23T11:17:35;11.77;;;2.65;;
52898;SDS011;38763;53.096;6.062;2024-03-23T11:20:02;12.32;;;2.58;;
52898;SDS011;38763;53.096;6.062;2024-03-23T11:22:45;9.23;;;2.03;;
52898;SDS011;38763;53.096;6.062;2024-03-23T11:27:41;13.75;;;2.85;;
52898;SDS011;38763;53.096;6.062;2024-03-23T11:30:11;14.10;;;2.53;;
52898;SDS011;38763;53.096;6.062;2024-03-23T11:32:37;15.32;;;2.78;;
52898;SDS011;38763;53.096;6.062;2024-03-23T11:35:03;8.15;;;2.50;;
52898;SDS011;38763;53.096;6.062;2024-03-23T11:37:28;9.63;;;1.95;;
52898;SDS011;38763;53.096;6.062;2024-03-23T11:39:54;7.82;;;1.67;;
52898;SDS011;38763;53.096;6.062;2024-03-23T11:42:20;8.63;;;1.70;;
52898;SDS011;38763;53.096;6.062;2024-03-23T11:44:46;6.10;;;1.45;;
52898;SDS011;38763;53.096;6.062;2024-03-23T11:47:12;9.60;;;1.40;;
52898;SDS011;38763;53.096;6.062;2024-03-23T11:49:38;8.65;;;1.48;;
52898;SDS011;38763;53.096;6.062;2024-03-23T11:52:06;7.03;;;1.63;;
52898;SDS011;38763;53.096;6.062;2024-03-23T11:54:32;3.90;;;1.33;;
52898;SDS011;38763;53.096;6.062;2024-03-23T11:56:58;4.47;;;1.27;;
52898;SDS011;38763;53.096;6.062;2024-03-23T12:02:08;9.95;;;1.85;;
52898;SDS011;38763;53.096;6.062;2024-03-23T12:04:40;10.40;;;2.55;;
52898;SDS011;38763;53.096;6.062;2024-03-23T12:09:40;8.00;;;2.17;;
52898;SDS011;38763;53.096;6.062;2024-03-23T12:12:16;14.70;;;2.55;;
52898;SDS011;38763;53.096;6.062;2024-03-23T12:14:43;11.05;;;2.50;;
52898;SDS011;38763;53.096;6.062;2024-03-23T12:17:31;11.05;;;2.40;;
52898;SDS011;38763;53.096;6.062;2024-03-23T12:19:57;7.18;;;1.77;;
52898;SDS011;38763;53.096;6.062;2024-03-23T12:22:23;7.25;;;1.63;;
52898;SDS011;38763;53.096;6.062;2024-03-23T12:24:49;5.60;;;1.20;;
52898;SDS011;38763;53.096;6.062;2024-03-23T12:27:15;6.35;;;1.48;;
52898;SDS011;38763;53.096;6.062;2024-03-23T12:29:41;6.70;;;1.70;;
52898;SDS011;38763;53.096;6.062;2024-03-23T12:32:10;5.65;;;1.20;;
52898;SDS011;38763;53.096;6.062;2024-03-23T12:34:37;2.67;;;0.80;;
52898;SDS011;38763;53.096;6.062;2024-03-23T12:37:03;5.85;;;1.25;;
52898;SDS011;38763;53.096;6.062;2024-03-23T12:39:29;9.20;;;1.70;;
52898;SDS011;38763;53.096;6.062;2024-03-23T12:41:54;11.15;;;2.13;;
52898;SDS011;38763;53.096;6.062;2024-03-23T12:44:20;10.13;;;2.10;;
52898;SDS011;38763;53.096;6.062;2024-03-23T12:46:48;10.13;;;2.10;;
52898;SDS011;38763;53.096;6.062;2024-03-23T12:49:14;12.05;;;2.00;;
52898;SDS011;38763;53.096;6.062;2024-03-23T12:51:43;8.57;;;1.77;;
52898;SDS011;38763;53.096;6.062;2024-03-23T12:54:13;10.68;;;2.08;;
52898;SDS011;38763;53.096;6.062;2024-03-23T12:56:39;8.20;;;2.67;;
52898;SDS011;38763;53.096;6.062;2024-03-23T12:59:04;12.93;;;2.40;;
52898;SDS011;38763;53.096;6.062;2024-03-23T13:01:30;10.90;;;2.25;;
52898;SDS011;38763;53.096;6.062;2024-03-23T13:03:56;8.55;;;2.25;;
52898;SDS011;38763;53.096;6.062;2024-03-23T13:06:21;10.02;;;2.50;;
52898;SDS011;38763;53.096;6.062;2024-03-23T13:08:47;12.65;;;2.72;;
52898;SDS011;38763;53.096;6.062;2024-03-23T13:11:15;11.13;;;2.67;;
52898;SDS011;38763;53.096;6.062;2024-03-23T13:13:40;18.30;;;2.85;;
52898;SDS011;38763;53.096;6.062;2024-03-23T13:16:07;16.08;;;2.75;;
52898;SDS011;38763;53.096;6.062;2024-03-23T13:18:33;18.70;;;3.20;;
52898;SDS011;38763;53.096;6.062;2024-03-23T13:20:59;13.68;;;2.85;;
52898;SDS011;38763;53.096;6.062;2024-03-23T13:23:24;16.90;;;3.03;;
52898;SDS011;38763;53.096;6.062;2024-03-23T13:25:53;17.02;;;2.97;;
52898;SDS011;38763;53.096;6.062;2024-03-23T13:28:21;13.15;;;2.65;;
52898;SDS011;38763;53.096;6.062;2024-03-23T13:30:50;10.73;;;2.40;;
52898;SDS011;38763;53.096;6.062;2024-03-23T13:33:28;10.50;;;2.30;;
52898;SDS011;38763;53.096;6.062;2024-03-23T13:35:55;9.18;;;2.25;;
52898;SDS011;38763;53.096;6.062;2024-03-23T13:38:21;9.05;;;1.98;;
52898;SDS011;38763;53.096;6.062;2024-03-23T13:40:54;8.90;;;2.55;;
52898;SDS011;38763;53.096;6.062;2024-03-23T13:43:21;11.52;;;2.55;;
52898;SDS011;38763;53.096;6.062;2024-03-23T13:45:48;11.98;;;2.75;;
52898;SDS011;38763;53.096;6.062;2024-03-23T13:48:21;15.05;;;2.47;;
52898;SDS011;38763;53.096;6.062;2024-03-23T13:53:24;11.55;;;2.20;;
52898;SDS011;38763;53.096;6.062;2024-03-23T13:55:49;12.43;;;2.35;;
52898;SDS011;38763;53.096;6.062;2024-03-23T13:58:15;10.02;;;2.05;;
52898;SDS011;38763;53.096;6.062;2024-03-23T14:00:41;12.60;;;2.33;;
52898;SDS011;38763;53.096;6.062;2024-03-23T14:03:11;10.18;;;2.45;;
52898;SDS011;38763;53.096;6.062;2024-03-23T14:05:37;12.13;;;2.90;;
52898;SDS011;38763;53.096;6.062;2024-03-23T14:08:04;8.80;;;2.17;;
52898;SDS011;38763;53.096;6.062;2024-03-23T14:10:33;14.10;;;3.13;;
52898;SDS011;38763;53.096;6.062;2024-03-23T14:13:00;14.73;;;5.97;;
52898;SDS011;38763;53.096;6.062;2024-03-23T14:15:27;19.50;;;6.50;;
52898;SDS011;38763;53.096;6.062;2024-03-23T14:17:52;14.20;;;3.28;;
52898;SDS011;38763;53.096;6.062;2024-03-23T14:20:19;22.27;;;6.50;;
52898;SDS011;38763;53.096;6.062;2024-03-23T14:22:46;21.55;;;10.18;;
52898;SDS011;38763;53.096;6.062;2024-03-23T14:25:11;18.73;;;4.50;;
52898;SDS011;38763;53.096;6.062;2024-03-23T14:27:37;13.20;;;2.45;;
52898;SDS011;38763;53.096;6.062;2024-03-23T14:30:03;30.55;;;13.30;;
52898;SDS011;38763;53.096;6.062;2024-03-23T14:32:33;12.90;;;3.05;;
52898;SDS011;38763;53.096;6.062;2024-03-23T14:35:08;10.05;;;3.25;;
52898;SDS011;38763;53.096;6.062;2024-03-23T14:37:36;5.80;;;1.63;;
52898;SDS011;38763;53.096;6.062;2024-03-23T14:40:03;12.93;;;3.45;;
52898;SDS011;38763;53.096;6.062;2024-03-23T14:42:29;10.23;;;1.75;;
52898;SDS011;38763;53.096;6.062;2024-03-23T14:44:57;18.38;;;7.07;;
52898;SDS011;38763;53.096;6.062;2024-03-23T14:47:23;24.27;;;8.00;;
52898;SDS011;38763;53.096;6.062;2024-03-23T14:49:49;30.75;;;11.63;;
52898;SDS011;38763;53.096;6.062;2024-03-23T14:52:16;22.60;;;12.27;;
52898;SDS011;38763;53.096;6.062;2024-03-23T14:54:42;16.98;;;7.28;;
52898;SDS011;38763;53.096;6.062;2024-03-23T14:57:08;17.23;;;6.88;;
52898;SDS011;38763;53.096;6.062;2024-03-23T14:59:35;14.02;;;3.90;;
52898;SDS011;38763;53.096;6.062;2024-03-23T15:02:03;16.67;;;3.15;;
52898;SDS011;38763;53.096;6.062;2024-03-23T15:04:38;15.32;;;5.25;;
52898;SDS011;38763;53.096;6.062;2024-03-23T15:07:06;16.30;;;4.90;;
52898;SDS011;38763;53.096;6.062;2024-03-23T15:09:32;19.13;;;5.22;;
52898;SDS011;38763;53.096;6.062;2024-03-23T15:11:58;16.90;;;6.18;;
52898;SDS011;38763;53.096;6.062;2024-03-23T15:14:24;16.85;;;5.50;;
52898;SDS011;38763;53.096;6.062;2024-03-23T15:16:50;25.08;;;10.43;;
52898;SDS011;38763;53.096;6.062;2024-03-23T15:19:17;15.60;;;5.20;;
52898;SDS011;38763;53.096;6.062;2024-03-23T15:21:43;14.38;;;2.97;;
52898;SDS011;38763;53.096;6.062;2024-03-23T15:24:09;14.75;;;4.75;;
52898;SDS011;38763;53.096;6.062;2024-03-23T15:26:36;12.88;;;4.53;;
52898;SDS011;38763;53.096;6.062;2024-03-23T15:29:02;15.32;;;4.07;;
52898;SDS011;38763;53.096;6.062;2024-03-23T15:31:28;14.00;;;5.10;;
52898;SDS011;38763;53.096;6.062;2024-03-23T15:33:54;17.55;;;5.40;;
52898;SDS011;38763;53.096;6.062;2024-03-23T15:36:20;12.13;;;2.78;;
52898;SDS011;38763;53.096;6.062;2024-03-23T15:38:46;19.40;;;10.63;;
52898;SDS011;38763;53.096;6.062;2024-03-23T15:41:14;16.55;;;6.10;;
52898;SDS011;38763;53.096;6.062;2024-03-23T15:43:39;13.02;;;2.15;;
52898;SDS011;38763;53.096;6.062;2024-03-23T15:46:06;16.33;;;6.95;;
52898;SDS011;38763;53.096;6.062;2024-03-23T15:48:33;78.90;;;28.83;;